Time;durP1;ratioP1;P1;durP2;ratioP2;P2;SDS_P1;SDS_P2;PMS_P1;PMS_P2;Temp;Humidity;BMP_temperature;BMP_pressure;BME280_temperature;BME280_humidity;BME280_pressure;Samples;Min_cycle;Max_cycle;Signal;HPM_P1;HPM_P2
2023/01/25 00:00:05;;;;;;;98.55;50.30;;;;;;;-0.36;100.00;103750.53;5051261;28;20035;-77
2023/01/25 00:02:30;;;;;;;98.57;49.92;;;;;;;-0.48;100.00;103731.00;5038277;28;20032;-78
2023/01/25 00:04:56;;;;;;;103.15;50.97;;;;;;;-0.34;100.00;103744.75;5051262;28;20032;-77
2023/01/25 00:07:21;;;;;;;106.25;52.53;;;;;;;-0.41;100.00;103727.19;5050204;28;20171;-77
2023/01/25 00:09:46;;;;;;;100.55;51.20;;;;;;;-0.39;100.00;103730.75;5044849;28;20028;-77
2023/01/25 00:12:12;;;;;;;100.03;50.10;;;;;;;-0.34;100.00;103734.50;5052489;28;20032;-77
2023/01/25 00:14:37;;;;;;;104.93;51.08;;;;;;;-0.34;100.00;103723.34;5052776;28;20469;-77
2023/01/25 00:17:02;;;;;;;99.30;49.65;;;;;;;-0.38;100.00;103722.25;5049946;28;21580;-77
2023/01/25 00:19:28;;;;;;;108.13;53.60;;;;;;;-0.37;100.00;103744.53;5051738;28;20040;-77
2023/01/25 00:21:53;;;;;;;105.47;52.63;;;;;;;-0.43;100.00;103718.47;5052747;28;20478;-77
2023/01/25 00:24:21;;;;;;;105.47;52.00;;;;;;;-0.34;100.00;103733.59;5049543;28;20111;-77
2023/01/25 00:26:47;;;;;;;108.47;52.78;;;;;;;-0.37;100.00;103731.72;5045438;28;20060;-77
2023/01/25 00:29:13;;;;;;;104.13;51.88;;;;;;;-0.38;100.00;103734.19;5050920;28;20452;-77
2023/01/25 00:32:01;;;;;;;106.28;51.33;;;;;;;-0.45;100.00;103729.44;5049177;28;20090;-77
2023/01/25 00:34:28;;;;;;;104.38;51.72;;;;;;;-0.41;100.00;103737.44;5044795;28;20033;-77
2023/01/25 00:36:57;;;;;;;110.18;52.83;;;;;;;-0.41;100.00;103731.41;5049388;28;20497;-77
2023/01/25 00:39:24;;;;;;;110.47;53.67;;;;;;;-0.40;100.00;103734.06;5048845;28;20071;-77
2023/01/25 00:41:50;;;;;;;107.55;52.70;;;;;;;-0.40;100.00;103723.81;5052010;28;20025;-77
2023/01/25 00:44:15;;;;;;;100.70;51.15;;;;;;;-0.38;100.00;103727.38;5043157;28;20040;-77
2023/01/25 00:46:40;;;;;;;108.22;52.15;;;;;;;-0.38;100.00;103729.94;5046265;28;20029;-77
2023/01/25 00:49:06;;;;;;;105.90;51.42;;;;;;;-0.39;100.00;103719.56;5051094;28;20036;-77
2023/01/25 00:51:31;;;;;;;117.22;54.30;;;;;;;-0.41;100.00;103716.03;5049375;28;20047;-77
2023/01/25 00:53:57;;;;;;;110.75;53.50;;;;;;;-0.42;100.00;103722.84;5051152;28;20025;-77
2023/01/25 00:56:22;;;;;;;110.28;53.20;;;;;;;-0.41;100.00;103716.94;5048774;28;20380;-77
2023/01/25 00:58:47;;;;;;;113.22;55.05;;;;;;;-0.39;100.00;103724.69;5049322;28;20017;-77
2023/01/25 01:01:13;;;;;;;115.95;55.53;;;;;;;-0.40;100.00;103721.25;5049622;28;20484;-77
2023/01/25 01:03:39;;;;;;;110.70;52.25;;;;;;;-0.46;100.00;103710.59;5052070;28;20440;-77
2023/01/25 01:06:08;;;;;;;116.18;55.50;;;;;;;-0.43;100.00;103708.22;5049643;28;20427;-77
2023/01/25 01:08:35;;;;;;;110.32;52.75;;;;;;;-0.42;100.00;103717.72;5043319;28;20035;-77
2023/01/25 01:11:03;;;;;;;112.40;54.15;;;;;;;-0.43;100.00;103704.78;5051519;28;20036;-77
2023/01/25 01:13:29;;;;;;;110.60;54.05;;;;;;;-0.41;100.00;103705.78;5042563;28;20078;-77
2023/01/25 01:15:55;;;;;;;115.75;55.70;;;;;;;-0.41;100.00;103706.66;5051038;28;20025;-77
2023/01/25 01:18:22;;;;;;;111.63;55.75;;;;;;;-0.43;100.00;103715.03;5051027;28;20114;-77
2023/01/25 01:20:51;;;;;;;118.82;55.92;;;;;;;-0.43;100.00;103713.34;5047611;28;20079;-77
2023/01/25 01:23:17;;;;;;;116.90;55.85;;;;;;;-0.48;100.00;103700.25;5055218;28;20501;-77
2023/01/25 01:25:43;;;;;;;111.05;54.17;;;;;;;-0.48;100.00;103704.50;5054138;28;20058;-77
2023/01/25 01:28:09;;;;;;;115.35;56.08;;;;;;;-0.49;100.00;103703.59;5053360;28;20024;-77
2023/01/25 01:30:35;;;;;;;111.63;54.70;;;;;;;-0.50;100.00;103703.47;5053835;28;20021;-77
2023/01/25 01:33:00;;;;;;;113.80;55.50;;;;;;;-0.49;100.00;103707.84;5049497;28;20064;-77
2023/01/25 01:35:28;;;;;;;116.50;54.83;;;;;;;-0.57;100.00;103699.63;5053794;28;20067;-77
2023/01/25 01:37:53;;;;;;;115.30;56.28;;;;;;;-0.50;100.00;103708.59;5047736;28;20040;-77
2023/01/25 01:40:18;;;;;;;116.05;54.58;;;;;;;-0.51;100.00;103712.84;5054082;28;20052;-77
2023/01/25 01:42:59;;;;;;;116.60;54.90;;;;;;;-0.53;100.00;103705.84;5053064;28;20033;-77
2023/01/25 01:45:46;;;;;;;112.28;51.95;;;;;;;-0.50;100.00;103711.16;5053093;28;20065;-77
2023/01/25 01:48:18;;;;;;;109.78;53.78;;;;;;;-0.57;100.00;103704.75;5044860;28;20039;-77
2023/01/25 01:50:45;;;;;;;108.05;52.58;;;;;;;-0.55;100.00;103707.44;5055329;28;20039;-77
2023/01/25 01:53:10;;;;;;;112.00;54.35;;;;;;;-0.52;100.00;103717.88;5055132;28;20021;-77
2023/01/25 01:55:36;;;;;;;111.32;53.60;;;;;;;-0.53;100.00;103716.97;5053651;28;20116;-77
2023/01/25 01:58:03;;;;;;;118.05;55.40;;;;;;;-0.54;100.00;103717.75;5054900;28;20503;-77
2023/01/25 02:00:33;;;;;;;118.63;56.47;;;;;;;-0.59;100.00;103701.22;5052603;28;20028;-77
2023/01/25 02:02:59;;;;;;;116.35;55.33;;;;;;;-0.60;100.00;103695.97;5052176;28;20028;-77
2023/01/25 02:05:49;;;;;;;118.00;55.38;;;;;;;-0.53;100.00;103710.97;5049808;28;20366;-77
2023/01/25 02:08:15;;;;;;;113.13;53.30;;;;;;;-0.63;100.00;103682.94;5054815;28;20029;-77
2023/01/25 02:10:43;;;;;;;113.40;54.85;;;;;;;-0.51;100.00;103714.53;5053804;28;20404;-77
2023/01/25 02:13:08;;;;;;;112.15;52.97;;;;;;;-0.59;100.00;103702.84;5054586;28;20051;-77
2023/01/25 02:15:46;;;;;;;113.60;53.22;;;;;;;-0.53;100.00;103704.16;5049152;28;20036;-77
2023/01/25 02:18:12;;;;;;;116.22;54.88;;;;;;;-0.54;100.00;103710.06;5053830;28;20032;-77
2023/01/25 02:20:45;;;;;;;121.68;55.17;;;;;;;-0.55;100.00;103713.44;5055110;28;20028;-77
2023/01/25 02:23:19;;;;;;;;;;;;;;;-0.51;100.00;103706.84;5053846;28;20064;-77
2023/01/25 02:25:45;;;;;;;116.20;54.13;;;;;;;-0.58;100.00;103712.34;5052193;28;20069;-77
2023/01/25 02:28:22;;;;;;;123.72;56.63;;;;;;;-0.63;100.00;103698.31;5044041;28;20492;-77
2023/01/25 02:30:47;;;;;;;114.70;54.25;;;;;;;-0.68;100.00;103692.00;5047257;28;20025;-77
2023/01/25 02:33:13;;;;;;;122.43;56.42;;;;;;;-0.64;100.00;103696.53;5049701;28;20026;-77
2023/01/25 02:35:45;;;;;;;115.43;53.65;;;;;;;-0.65;100.00;103687.09;5053240;28;20025;-77
2023/01/25 02:38:16;;;;;;;117.38;53.95;;;;;;;-0.64;100.00;103683.72;5050989;28;20037;-77
2023/01/25 02:40:59;;;;;;;117.90;55.97;;;;;;;-0.64;100.00;103682.06;5029152;28;20094;-77
2023/01/25 02:43:28;;;;;;;122.70;54.20;;;;;;;-0.63;100.00;103680.38;5042816;28;20029;-77
2023/01/25 02:46:02;;;;;;;117.70;54.10;;;;;;;-0.73;100.00;103654.13;5045679;28;20523;-77
2023/01/25 02:48:27;;;;;;;113.50;54.20;;;;;;;-0.63;100.00;103670.13;5050807;28;20791;-77
2023/01/25 02:50:52;;;;;;;120.60;54.72;;;;;;;-0.66;100.00;103660.56;5053713;28;20029;-77
2023/01/25 02:53:17;;;;;;;118.25;55.63;;;;;;;-0.60;100.00;103665.22;5038811;28;20075;-78
2023/01/25 02:55:43;;;;;;;116.90;54.20;;;;;;;-0.62;100.00;103674.47;5042664;28;20533;-76
2023/01/25 02:58:08;;;;;;;122.30;56.97;;;;;;;-0.60;100.00;103672.91;5051284;28;20087;-77
2023/01/25 03:00:33;;;;;;;116.10;55.90;;;;;;;-0.62;100.00;103671.91;5052383;28;20112;-77
2023/01/25 03:02:59;;;;;;;118.55;54.70;;;;;;;-0.64;100.00;103670.94;5047432;28;20035;-77
2023/01/25 03:05:24;;;;;;;111.80;52.95;;;;;;;-0.64;100.00;103669.25;5048770;28;20090;-77
2023/01/25 03:07:49;;;;;;;115.20;54.10;;;;;;;-0.62;100.00;103666.78;5049984;28;20418;-76
2023/01/25 03:10:14;;;;;;;114.97;54.38;;;;;;;-0.64;100.00;103665.81;5053746;28;20040;-77
2023/01/25 03:12:40;;;;;;;117.80;55.75;;;;;;;-0.63;100.00;103677.81;5051889;28;20159;-77
2023/01/25 03:15:06;;;;;;;117.15;53.72;;;;;;;-0.68;100.00;103661.25;5053940;28;20496;-77
2023/01/25 03:17:32;;;;;;;118.05;55.30;;;;;;;-0.66;100.00;103660.56;5050501;28;20029;-77
2023/01/25 03:19:57;;;;;;;117.30;55.13;;;;;;;-0.72;100.00;103647.31;5051097;28;20032;-76
2023/01/25 03:22:22;;;;;;;118.75;54.97;;;;;;;-0.68;100.00;103653.56;5052945;28;20033;-77
2023/01/25 03:24:48;;;;;;;120.95;55.78;;;;;;;-0.65;100.00;103657.22;5051712;28;20371;-77
2023/01/25 03:27:13;;;;;;;115.85;53.97;;;;;;;-0.64;100.00;103660.66;5043505;28;20377;-77
2023/01/25 03:29:40;;;;;;;112.93;54.00;;;;;;;-0.66;100.00;103652.88;5052199;28;20029;-77
2023/01/25 03:32:06;;;;;;;114.57;53.20;;;;;;;-0.75;100.00;103635.22;5051502;28;20021;-77
2023/01/25 03:34:31;;;;;;;113.53;52.53;;;;;;;-0.71;100.00;103644.00;5045581;28;20040;-77
2023/01/25 03:36:56;;;;;;;116.57;55.00;;;;;;;-0.73;100.00;103636.19;5050617;28;20040;-76
2023/01/25 03:39:22;;;;;;;116.18;52.92;;;;;;;-0.72;100.00;103634.50;5048513;28;20037;-77
2023/01/25 03:41:47;;;;;;;114.60;53.97;;;;;;;-0.74;100.00;103639.56;5040102;28;20047;-76
2023/01/25 03:44:13;;;;;;;107.38;51.85;;;;;;;-0.80;100.00;103623.75;5051279;28;20033;-77
2023/01/25 03:46:39;;;;;;;111.13;49.92;;;;;;;-0.74;100.00;103636.09;5052115;28;20025;-76
2023/01/25 03:49:04;;;;;;;113.55;51.97;;;;;;;-0.76;100.00;103633.44;5047192;28;20055;-77
2023/01/25 03:51:29;;;;;;;112.80;53.85;;;;;;;-0.75;100.00;103629.22;5044301;28;20071;-76
2023/01/25 03:53:55;;;;;;;111.97;53.65;;;;;;;-0.84;100.00;103626.91;5048456;28;20032;-77
2023/01/25 03:56:20;;;;;;;110.25;52.88;;;;;;;-0.81;100.00;103632.25;5050824;28;20024;-76
2023/01/25 03:58:46;;;;;;;113.88;53.67;;;;;;;-0.83;100.00;103633.81;5052232;28;20479;-77
2023/01/25 04:01:11;;;;;;;115.28;51.38;;;;;;;-0.84;100.00;103632.03;5051277;28;20020;-77
2023/01/25 04:03:37;;;;;;;111.05;52.00;;;;;;;-0.81;100.00;103634.81;5050807;28;20032;-76
2023/01/25 04:06:04;;;;;;;109.95;51.00;;;;;;;-0.82;100.00;103634.69;5046738;28;20496;-77
2023/01/25 04:08:30;;;;;;;110.93;50.55;;;;;;;-0.84;100.00;103626.91;5048872;28;20033;-77
2023/01/25 04:11:06;;;;;;;112.13;52.17;;;;;;;-0.85;100.00;103634.47;5053048;28;20078;-77
2023/01/25 04:13:35;;;;;;;110.47;51.65;;;;;;;-0.89;100.00;103627.38;5051702;28;20085;-77
2023/01/25 04:16:21;;;;;;;110.57;52.72;;;;;;;-0.92;100.00;103628.03;5050082;28;20025;-76
2023/01/25 04:18:47;;;;;;;116.13;51.42;;;;;;;-0.89;100.00;103632.50;5050827;28;20029;-77
2023/01/25 04:21:12;;;;;;;111.03;50.45;;;;;;;-0.97;100.00;103614.06;5052275;28;20036;-77
2023/01/25 04:23:37;;;;;;;112.85;49.35;;;;;;;-0.96;100.00;103615.81;5049418;28;20471;-76
2023/01/25 04:26:05;;;;;;;107.70;49.88;;;;;;;-0.95;100.00;103615.94;5052249;28;20025;-76
2023/01/25 04:28:32;;;;;;;112.18;49.75;;;;;;;-0.92;100.00;103620.38;5046103;28;20033;-76
2023/01/25 04:30:57;;;;;;;112.55;49.53;;;;;;;-1.02;100.00;103611.16;5033200;28;20055;-77
2023/01/25 04:33:23;;;;;;;105.93;47.90;;;;;;;-0.96;100.00;103628.63;5047761;28;20036;-76
2023/01/25 04:35:49;;;;;;;106.95;48.05;;;;;;;-0.99;100.00;103613.94;5051557;28;20024;-77
2023/01/25 04:38:15;;;;;;;101.30;49.55;;;;;;;-1.04;100.00;103606.75;5048853;28;20032;-76
2023/01/25 04:40:41;;;;;;;107.07;47.50;;;;;;;-1.10;100.00;103601.22;5048247;28;20021;-77
2023/01/25 04:43:07;;;;;;;108.82;49.20;;;;;;;-1.03;100.00;103629.00;5052135;28;20025;-76
2023/01/25 04:45:32;;;;;;;108.30;51.38;;;;;;;-1.07;100.00;103621.91;5050737;28;20029;-77
2023/01/25 04:48:01;;;;;;;98.53;47.35;;;;;;;-1.12;100.00;103621.56;5040027;28;20038;-77
2023/01/25 04:50:27;;;;;;;99.70;48.00;;;;;;;-1.13;100.00;103612.13;5050908;28;20055;-76
2023/01/25 04:52:52;;;;;;;107.35;49.80;;;;;;;-1.09;100.00;103608.09;5050824;28;20519;-77
2023/01/25 04:55:18;;;;;;;110.93;51.42;;;;;;;-1.09;100.00;103619.22;5045246;28;20468;-76
2023/01/25 04:57:44;;;;;;;103.15;47.63;;;;;;;-1.06;100.00;103611.75;5046527;28;20488;-76
2023/01/25 05:00:10;;;;;;;106.50;48.97;;;;;;;-1.04;100.00;103606.75;5048622;28;20108;-76
2023/01/25 05:02:36;;;;;;;104.53;49.42;;;;;;;-1.04;100.00;103602.50;5043324;28;20124;-77
2023/01/25 05:05:03;;;;;;;105.68;48.67;;;;;;;-1.04;100.00;103601.63;5046406;28;20132;-77
2023/01/25 05:07:28;;;;;;;101.78;47.08;;;;;;;-1.02;100.00;103598.38;5051278;28;20033;-76
2023/01/25 05:09:55;;;;;;;108.30;48.65;;;;;;;-1.07;100.00;103580.94;5051831;28;20108;-77
2023/01/25 05:12:20;;;;;;;104.47;48.53;;;;;;;-1.01;100.00;103594.16;5049271;28;20102;-77
2023/01/25 05:14:45;;;;;;;103.60;48.63;;;;;;;-1.00;100.00;103594.25;5050329;28;20555;-76
2023/01/25 05:17:11;;;;;;;101.32;48.28;;;;;;;-1.05;100.00;103581.91;5051476;28;20029;-76
2023/01/25 05:19:36;;;;;;;104.97;48.95;;;;;;;-0.99;100.00;103584.88;5041735;28;20548;-76
2023/01/25 05:22:06;;;;;;;104.28;48.20;;;;;;;-1.01;100.00;103583.91;5040657;28;20065;-76
2023/01/25 05:24:32;;;;;;;102.82;49.40;;;;;;;-1.03;100.00;103582.91;5050501;28;20542;-76
2023/01/25 05:26:59;;;;;;;106.70;47.67;;;;;;;-1.01;100.00;103583.91;5047564;28;20044;-76
2023/01/25 05:29:24;;;;;;;109.93;50.78;;;;;;;-1.01;100.00;103586.47;5037328;28;20029;-76
2023/01/25 05:31:49;;;;;;;102.82;48.22;;;;;;;-1.05;100.00;103576.78;5045040;28;20080;-76
2023/01/25 05:34:15;;;;;;;103.65;47.53;;;;;;;-0.99;100.00;103584.88;5046949;28;20104;-76
2023/01/25 05:36:40;;;;;;;99.40;46.47;;;;;;;-1.12;100.00;103564.34;5051461;28;20076;-76
2023/01/25 05:39:07;;;;;;;103.05;46.83;;;;;;;-1.01;100.00;103586.47;5050175;28;20125;-76
2023/01/25 05:41:32;;;;;;;97.22;46.00;;;;;;;-1.01;100.00;103587.34;5041035;28;20036;-76
2023/01/25 05:43:58;;;;;;;103.28;46.95;;;;;;;-1.01;100.00;103578.78;5050723;28;20526;-76
2023/01/25 05:46:23;;;;;;;97.25;45.50;;;;;;;-1.02;100.00;103584.69;5051416;28;20037;-76
2023/01/25 05:48:48;;;;;;;107.43;48.55;;;;;;;-1.08;100.00;103579.13;5042228;28;20017;-76
2023/01/25 05:51:15;;;;;;;107.80;51.30;;;;;;;-1.11;100.00;103587.53;5040502;28;20483;-76
2023/01/25 05:53:40;;;;;;;98.47;45.28;;;;;;;-1.16;100.00;103585.41;5048588;28;20075;-76
2023/01/25 05:56:07;;;;;;;102.95;46.70;;;;;;;-1.26;100.00;103569.44;5045431;28;20033;-76
2023/01/25 05:58:33;;;;;;;101.65;48.83;;;;;;;-1.19;100.00;103591.22;5050586;28;20039;-76
2023/01/25 06:01:02;;;;;;;99.88;46.83;;;;;;;-1.22;100.00;103570.53;5044961;28;20474;-76
2023/01/25 06:03:29;;;;;;;97.35;44.90;;;;;;;-1.17;100.00;103579.41;5049316;28;20120;-76
2023/01/25 06:05:56;;;;;;;97.13;45.22;;;;;;;-1.18;100.00;103577.63;5053536;28;20036;-76
2023/01/25 06:08:23;;;;;;;94.18;44.42;;;;;;;-1.26;100.00;103560.88;5052273;28;20130;-76
2023/01/25 06:10:48;;;;;;;98.32;45.55;;;;;;;-1.17;100.00;103573.41;5055274;28;20051;-76
2023/01/25 06:13:13;;;;;;;99.45;46.05;;;;;;;-1.21;100.00;103573.19;5054630;28;20528;-76
2023/01/25 06:15:39;;;;;;;98.43;45.05;;;;;;;-1.19;100.00;103576.72;5054430;28;20502;-76
2023/01/25 06:18:04;;;;;;;97.35;45.28;;;;;;;-1.17;100.00;103575.97;5052923;28;20388;-76
2023/01/25 06:20:29;;;;;;;97.82;44.95;;;;;;;-1.15;100.00;103582.06;5044677;28;20021;-76
2023/01/25 06:22:54;;;;;;;93.10;44.55;;;;;;;-1.16;100.00;103576.06;5053997;28;20387;-76
2023/01/25 06:25:20;;;;;;;96.90;45.45;;;;;;;-1.15;100.00;103577.84;5049925;28;20025;-76
2023/01/25 06:27:45;;;;;;;94.25;43.55;;;;;;;-1.17;100.00;103574.31;5054081;28;20029;-76
2023/01/25 06:30:12;;;;;;;96.50;45.42;;;;;;;-1.25;100.00;103568.63;5053597;28;20097;-76
2023/01/25 06:32:37;;;;;;;91.22;43.58;;;;;;;-1.17;100.00;103575.97;5053198;28;20033;-77
2023/01/25 06:35:03;;;;;;;90.38;42.10;;;;;;;-1.30;100.00;103566.56;5050395;28;20028;-76
2023/01/25 06:37:28;;;;;;;91.57;42.50;;;;;;;-1.32;100.00;103571.56;5033834;28;20083;-76
2023/01/25 06:39:53;;;;;;;93.32;43.67;;;;;;;-1.30;100.00;103581.91;5044396;28;20056;-76
2023/01/25 06:42:19;;;;;;;90.20;42.53;;;;;;;-1.34;100.00;103580.81;5048741;28;20030;-76
2023/01/25 06:44:44;;;;;;;91.38;42.20;;;;;;;-1.39;100.00;103569.38;5050993;28;20460;-76
2023/01/25 06:47:11;;;;;;;89.18;42.40;;;;;;;-1.39;100.00;103576.16;5052979;28;20491;-76
2023/01/25 06:49:36;;;;;;;89.28;43.35;;;;;;;-1.44;100.00;103558.84;5049333;28;20029;-76
2023/01/25 06:52:01;;;;;;;92.18;43.70;;;;;;;-1.44;100.00;103569.06;5043814;28;20028;-76
2023/01/25 06:54:27;;;;;;;91.05;42.75;;;;;;;-1.46;100.00;103560.38;5052564;28;20419;-76
2023/01/25 06:56:52;;;;;;;91.20;43.42;;;;;;;-1.41;100.00;103581.16;5051060;28;20473;-76
2023/01/25 06:59:18;;;;;;;84.97;41.55;;;;;;;-1.43;100.00;103572.50;5043900;28;20468;-76
2023/01/25 07:01:43;;;;;;;95.78;44.38;;;;;;;-1.49;100.00;103569.53;5050583;28;20033;-76
2023/01/25 07:04:11;;;;;;;89.15;42.00;;;;;;;-1.45;100.00;103574.06;5052010;28;20033;-76
2023/01/25 07:06:37;;;;;;;91.22;43.50;;;;;;;-1.44;100.00;103573.28;5042244;28;20029;-76
2023/01/25 07:09:07;;;;;;;88.45;41.80;;;;;;;-1.46;100.00;103565.50;5049409;28;20021;-76
2023/01/25 07:11:32;;;;;;;90.90;42.78;;;;;;;-1.47;100.00;103568.84;5039827;28;20410;-76
2023/01/25 07:13:59;;;;;;;84.55;40.28;;;;;;;-1.44;100.00;103568.16;5051841;28;20025;-76
2023/01/25 07:16:25;;;;;;;95.88;44.47;;;;;;;-1.45;100.00;103569.81;5049456;28;20025;-76
2023/01/25 07:18:52;;;;;;;91.57;39.50;;;;;;;-1.46;100.00;103565.50;5026466;28;20052;-76
2023/01/25 07:21:22;;;;;;;88.68;41.72;;;;;;;-1.47;100.00;103568.84;5038547;28;20052;-76
2023/01/25 07:23:49;;;;;;;89.28;41.50;;;;;;;-1.45;100.00;103576.63;5051727;28;20040;-76
2023/01/25 07:26:20;;;;;;;91.18;41.75;;;;;;;-1.47;100.00;103573.09;5052507;28;20020;-76
2023/01/25 07:28:46;;;;;;;90.88;40.85;;;;;;;-1.48;100.00;103578.97;5051514;28;20055;-76
2023/01/25 07:31:13;;;;;;;91.22;42.80;;;;;;;-1.49;100.00;103579.75;5051849;28;20032;-76
2023/01/25 07:33:38;;;;;;;85.45;40.15;;;;;;;-1.50;100.00;103566.06;5052932;28;20104;-76
2023/01/25 07:36:06;;;;;;;86.40;41.10;;;;;;;-1.46;100.00;103570.63;5049788;28;20100;-77
2023/01/25 07:38:32;;;;;;;88.03;40.10;;;;;;;-1.49;100.00;103561.84;5044022;28;20481;-76
2023/01/25 07:40:58;;;;;;;88.88;41.17;;;;;;;-1.50;100.00;103557.53;5051309;28;20111;-76
2023/01/25 07:43:24;;;;;;;86.22;41.55;;;;;;;-1.46;100.00;103564.63;5051172;28;20033;-76
2023/01/25 07:45:49;;;;;;;89.22;41.72;;;;;;;-1.46;100.00;103568.06;5045180;28;20025;-76
2023/01/25 07:48:16;;;;;;;88.68;41.40;;;;;;;-1.44;100.00;103563.03;5051077;28;20025;-76
2023/01/25 07:50:45;;;;;;;89.65;41.05;;;;;;;-1.44;100.00;103553.72;5052552;28;20112;-76
2023/01/25 07:53:13;;;;;;;90.50;41.83;;;;;;;-1.43;100.00;103554.59;5043118;28;20021;-76
2023/01/25 07:55:38;;;;;;;93.68;41.10;;;;;;;-1.46;100.00;103547.59;5051600;28;20036;-76
2023/01/25 07:58:04;;;;;;;90.50;42.15;;;;;;;-1.45;100.00;103556.16;5053129;28;20036;-75
2023/01/25 08:00:29;;;;;;;91.07;42.70;;;;;;;-1.45;100.00;103559.59;5042449;28;20544;-76
2023/01/25 08:02:55;;;;;;;85.82;39.92;;;;;;;-1.48;100.00;103550.81;5051493;28;20033;-75
2023/01/25 08:05:20;;;;;;;93.95;43.85;;;;;;;-1.43;100.00;103555.47;5052315;28;20120;-76
2023/01/25 08:07:46;;;;;;;91.57;42.13;;;;;;;-1.45;100.00;103543.34;5050903;28;20025;-75
2023/01/25 08:10:11;;;;;;;93.85;42.53;;;;;;;-1.43;100.00;103541.81;5048515;28;20059;-75
2023/01/25 08:12:37;;;;;;;99.45;44.83;;;;;;;-1.35;100.00;103550.88;5053131;28;20025;-76
2023/01/25 08:15:03;;;;;;;89.15;41.33;;;;;;;-1.36;100.00;103541.44;5051916;28;20468;-76
2023/01/25 08:17:31;;;;;;;100.88;43.92;;;;;;;-1.32;100.00;103543.41;5046337;28;20034;-75
2023/01/25 08:19:57;;;;;;;93.60;42.80;;;;;;;-1.32;100.00;103547.66;5045546;28;20033;-76
2023/01/25 08:22:23;;;;;;;92.95;42.67;;;;;;;-1.33;100.00;103536.53;5049756;28;20060;-75
2023/01/25 08:24:49;;;;;;;95.45;42.90;;;;;;;-1.31;100.00;103549.41;5052326;28;20072;-75
2023/01/25 08:27:14;;;;;;;95.43;44.90;;;;;;;-1.36;100.00;103544.00;5049438;28;20018;-75
2023/01/25 08:29:40;;;;;;;92.93;43.45;;;;;;;-1.33;100.00;103544.19;5052131;28;20111;-76
2023/01/25 08:32:06;;;;;;;93.75;44.25;;;;;;;-1.34;100.00;103533.84;5052168;28;20032;-77
2023/01/25 08:34:32;;;;;;;95.13;43.25;;;;;;;-1.33;100.00;103535.63;5052257;28;20037;-76
2023/01/25 08:36:57;;;;;;;95.38;44.83;;;;;;;-1.34;100.00;103532.19;5051621;28;20037;-76
2023/01/25 08:39:22;;;;;;;91.07;41.33;;;;;;;-1.36;100.00;103531.19;5051934;28;20063;-76
2023/01/25 08:41:48;;;;;;;93.63;42.95;;;;;;;-1.38;100.00;103531.88;5050991;28;20025;-76
2023/01/25 08:44:13;;;;;;;90.43;42.42;;;;;;;-1.40;100.00;103533.44;5051173;28;20094;-76
2023/01/25 08:46:38;;;;;;;90.05;40.78;;;;;;;-1.44;100.00;103532.31;5052295;28;20020;-76
2023/01/25 08:49:04;;;;;;;92.22;42.38;;;;;;;-1.48;100.00;103533.78;5052146;28;20514;-76
2023/01/25 08:51:31;;;;;;;86.25;39.92;;;;;;;-1.44;100.00;103537.44;5051002;28;20023;-76
2023/01/25 08:54:02;;;;;;;90.75;42.53;;;;;;;-1.37;100.00;103544.78;5052439;28;20357;-76
2023/01/25 08:56:27;;;;;;;86.03;41.20;;;;;;;-1.35;100.00;103543.19;5050124;28;20393;-76
2023/01/25 08:58:52;;;;;;;93.10;42.28;;;;;;;-1.29;100.00;103541.06;5051300;28;20029;-76
2023/01/25 09:01:19;;;;;;;86.05;39.58;;;;;;;-1.26;100.00;103537.81;5045020;28;20033;-76
2023/01/25 09:03:46;;;;;;;88.07;40.33;;;;;;;-1.26;100.00;103532.72;5051703;28;20419;-76
2023/01/25 09:06:12;;;;;;;93.85;43.47;;;;;;;-1.24;100.00;103526.91;5050770;28;20024;-76
2023/01/25 09:08:38;;;;;;;94.70;41.92;;;;;;;-1.22;100.00;103517.66;5051646;28;20492;-76
2023/01/25 09:11:07;;;;;;;92.80;41.13;;;;;;;-1.14;100.00;103519.88;5051378;28;20052;-76
2023/01/25 09:13:32;;;;;;;92.88;40.95;;;;;;;-1.15;100.00;103524.06;5051714;28;20028;-76
2023/01/25 09:15:59;;;;;;;95.00;43.05;;;;;;;-1.20;100.00;103518.66;5049641;28;20451;-76
2023/01/25 09:18:26;;;;;;;93.75;40.65;;;;;;;-1.29;100.00;103512.03;5050653;28;20021;-76
2023/01/25 09:20:51;;;;;;;99.43;43.13;;;;;;;-1.33;100.00;103510.94;5050731;28;20562;-76
2023/01/25 09:23:18;;;;;;;89.28;40.53;;;;;;;-1.34;100.00;103509.16;5033414;28;20124;-76
2023/01/25 09:25:43;;;;;;;92.35;41.13;;;;;;;-1.30;100.00;103508.59;5051053;28;20055;-76
2023/01/25 09:28:10;;;;;;;93.47;42.58;;;;;;;-1.27;100.00;103516.47;5049721;28;20065;-76
2023/01/25 09:30:35;;;;;;;97.45;42.80;;;;;;;-1.28;100.00;103508.66;5051779;28;20037;-76
2023/01/25 09:33:03;;;;;;;95.85;43.10;;;;;;;-1.28;100.00;103508.66;5051314;28;20025;-76
2023/01/25 09:35:29;;;;;;;95.25;43.05;;;;;;;-1.27;100.00;103506.22;5051596;28;20131;-76
2023/01/25 09:37:55;;;;;;;95.03;42.83;;;;;;;-1.23;100.00;103504.75;5051623;28;20041;-76
2023/01/25 09:40:26;;;;;;;95.18;42.83;;;;;;;-1.17;100.00;103519.66;5052954;28;20089;-76
2023/01/25 09:42:57;;;;;;;96.63;44.40;;;;;;;-1.14;100.00;103507.06;5053641;28;20439;-76
2023/01/25 09:45:35;;;;;;;101.65;45.95;;;;;;;-1.08;100.00;103499.75;5055069;28;20380;-76
2023/01/25 09:48:09;;;;;;;99.32;44.25;;;;;;;-1.04;100.00;103501.78;5054751;28;20439;-76
2023/01/25 09:50:35;;;;;;;98.07;44.35;;;;;;;-1.04;100.00;103506.88;5055666;28;20131;-76
2023/01/25 09:53:14;;;;;;;93.55;42.15;;;;;;;-1.08;100.00;103504.88;5055181;28;20516;-76
2023/01/25 09:55:40;;;;;;;93.72;41.50;;;;;;;-1.16;100.00;103504.38;5053980;28;20098;-75
2023/01/25 09:58:12;;;;;;;99.32;43.53;;;;;;;-1.11;100.00;103507.25;5055086;28;20463;-76
2023/01/25 10:00:43;;;;;;;92.80;39.17;;;;;;;-1.10;100.00;103509.91;5054982;28;20475;-76
2023/01/25 10:03:36;;;;;;;99.10;43.78;;;;;;;-1.03;100.00;103508.66;5054895;28;20063;-76
2023/01/25 10:06:02;;;;;;;101.77;44.03;;;;;;;-1.01;100.00;103504.53;5055434;28;20017;-76
2023/01/25 10:08:38;;;;;;;98.47;44.03;;;;;;;-1.05;100.00;103500.84;5054380;28;20036;-76
2023/01/25 10:11:23;;;;;;;94.60;43.42;;;;;;;-0.97;100.00;103509.06;5054684;28;20054;-76
2023/01/25 10:13:49;;;;;;;98.30;41.95;;;;;;;-1.00;100.00;103494.38;5050967;28;20025;-76
2023/01/25 10:16:39;;;;;;;104.93;44.10;;;;;;;-0.93;100.00;103493.09;5053775;28;20031;-76
2023/01/25 10:19:47;;;;;;;96.65;44.28;;;;;;;-0.89;100.00;103489.94;5054684;28;20021;-76
2023/01/25 10:22:33;;;;;;;97.72;42.97;;;;;;;-0.88;100.00;103488.28;5053940;28;20064;-76
2023/01/25 10:25:27;;;;;;;100.07;42.42;;;;;;;-0.90;100.00;103484.75;5053067;28;20472;-76
2023/01/25 10:27:57;;;;;;;95.40;42.92;;;;;;;-0.97;100.00;103480.91;5043051;28;20483;-76
2023/01/25 10:30:26;;;;;;;102.80;45.40;;;;;;;-1.00;100.00;103491.81;5052469;28;20033;-76
2023/01/25 10:32:57;;;;;;;99.07;44.72;;;;;;;-1.06;100.00;103482.84;5052442;28;20029;-76
2023/01/25 10:35:28;;;;;;;96.05;43.35;;;;;;;-1.07;100.00;103468.28;5047405;28;20029;-76
2023/01/25 10:37:56;;;;;;;99.68;43.30;;;;;;;-1.05;100.00;103467.56;5048293;28;20464;-76
2023/01/25 10:40:23;;;;;;;102.05;46.35;;;;;;;-1.04;100.00;103464.25;5054366;28;20021;-76
2023/01/25 10:43:14;;;;;;;104.13;46.42;;;;;;;-1.01;100.00;103467.00;5053816;28;20078;-76
2023/01/25 10:45:41;;;;;;;99.75;44.65;;;;;;;-0.96;100.00;103455.38;5054488;28;20483;-76
2023/01/25 10:48:16;;;;;;;96.65;43.65;;;;;;;-0.94;100.00;103445.25;5054100;28;20029;-76
2023/01/25 10:50:45;;;;;;;95.05;43.15;;;;;;;-0.92;100.00;103435.09;5053639;28;20461;-76
2023/01/25 10:53:34;;;;;;;93.50;42.13;;;;;;;-0.92;100.00;103422.28;5052258;28;20037;-76
2023/01/25 10:56:09;;;;;;;96.65;42.20;;;;;;;-0.87;100.00;103432.06;5054365;28;20017;-76
2023/01/25 10:58:38;;;;;;;102.25;44.45;;;;;;;-0.82;100.00;103429.78;5053681;28;20031;-76